sensor_id;sensor_type;location;lat;lon;timestamp;P1;durP1;ratioP1;P2;durP2;ratioP2
70297;SDS011;57702;44.420;20.298;2023-05-08T00:01:42;13.15;;;4.10;;
70297;SDS011;57702;44.420;20.298;2023-05-08T00:04:08;18.65;;;3.08;;
70297;SDS011;57702;44.420;20.298;2023-05-08T00:06:34;8.00;;;3.40;;
70297;SDS011;57702;44.420;20.298;2023-05-08T00:09:01;3.63;;;2.60;;
70297;SDS011;57702;44.420;20.298;2023-05-08T00:11:27;5.80;;;3.13;;
70297;SDS011;57702;44.420;20.298;2023-05-08T00:13:53;20.60;;;2.42;;
70297;SDS011;57702;44.420;20.298;2023-05-08T00:16:19;6.45;;;2.53;;
70297;SDS011;57702;44.420;20.298;2023-05-08T00:18:46;4.80;;;2.47;;
70297;SDS011;57702;44.420;20.298;2023-05-08T00:21:12;4.55;;;2.88;;
70297;SDS011;57702;44.420;20.298;2023-05-08T00:23:38;7.57;;;3.35;;
70297;SDS011;57702;44.420;20.298;2023-05-08T00:26:04;16.00;;;4.65;;
70297;SDS011;57702;44.420;20.298;2023-05-08T00:28:30;8.55;;;3.55;;
70297;SDS011;57702;44.420;20.298;2023-05-08T00:30:58;12.20;;;6.75;;
70297;SDS011;57702;44.420;20.298;2023-05-08T00:33:25;19.48;;;5.43;;
70297;SDS011;57702;44.420;20.298;2023-05-08T00:35:57;7.53;;;4.80;;
70297;SDS011;57702;44.420;20.298;2023-05-08T00:38:23;7.13;;;4.00;;
70297;SDS011;57702;44.420;20.298;2023-05-08T00:40:50;15.80;;;6.20;;
70297;SDS011;57702;44.420;20.298;2023-05-08T00:43:16;14.18;;;4.28;;
70297;SDS011;57702;44.420;20.298;2023-05-08T00:45:43;12.05;;;5.03;;
70297;SDS011;57702;44.420;20.298;2023-05-08T00:48:10;10.60;;;4.03;;
70297;SDS011;57702;44.420;20.298;2023-05-08T00:50:36;12.35;;;4.63;;
70297;SDS011;57702;44.420;20.298;2023-05-08T00:53:02;9.55;;;4.72;;
70297;SDS011;57702;44.420;20.298;2023-05-08T00:55:29;13.57;;;6.68;;
70297;SDS011;57702;44.420;20.298;2023-05-08T00:57:56;13.90;;;4.65;;
70297;SDS011;57702;44.420;20.298;2023-05-08T01:00:22;21.60;;;6.03;;
70297;SDS011;57702;44.420;20.298;2023-05-08T01:02:48;11.80;;;5.05;;
70297;SDS011;57702;44.420;20.298;2023-05-08T01:05:15;24.80;;;6.40;;
70297;SDS011;57702;44.420;20.298;2023-05-08T01:07:41;19.90;;;6.55;;
70297;SDS011;57702;44.420;20.298;2023-05-08T01:10:08;18.27;;;7.50;;
70297;SDS011;57702;44.420;20.298;2023-05-08T01:12:43;19.75;;;7.20;;
70297;SDS011;57702;44.420;20.298;2023-05-08T01:15:17;10.80;;;5.07;;
70297;SDS011;57702;44.420;20.298;2023-05-08T01:20:25;10.80;;;3.00;;
70297;SDS011;57702;44.420;20.298;2023-05-08T01:23:14;7.70;;;3.67;;
70297;SDS011;57702;44.420;20.298;2023-05-08T01:33:49;16.15;;;6.80;;
70297;SDS011;57702;44.420;20.298;2023-05-08T01:41:13;25.75;;;9.80;;
70297;SDS011;57702;44.420;20.298;2023-05-08T01:46:26;17.25;;;5.88;;
70297;SDS011;57702;44.420;20.298;2023-05-08T01:48:55;5.07;;;3.65;;
70297;SDS011;57702;44.420;20.298;2023-05-08T01:51:24;8.48;;;3.50;;
70297;SDS011;57702;44.420;20.298;2023-05-08T01:53:54;2.85;;;2.10;;
70297;SDS011;57702;44.420;20.298;2023-05-08T01:56:22;3.63;;;3.13;;
70297;SDS011;57702;44.420;20.298;2023-05-08T01:58:49;2.55;;;2.15;;
70297;SDS011;57702;44.420;20.298;2023-05-08T02:01:17;2.20;;;1.73;;
70297;SDS011;57702;44.420;20.298;2023-05-08T02:03:45;2.22;;;1.33;;
70297;SDS011;57702;44.420;20.298;2023-05-08T02:06:11;1.35;;;1.25;;
70297;SDS011;57702;44.420;20.298;2023-05-08T02:08:38;1.88;;;1.35;;
70297;SDS011;57702;44.420;20.298;2023-05-08T02:11:06;0.95;;;0.95;;
70297;SDS011;57702;44.420;20.298;2023-05-08T02:13:32;12.70;;;1.73;;
70297;SDS011;57702;44.420;20.298;2023-05-08T02:16:00;1.85;;;1.67;;
70297;SDS011;57702;44.420;20.298;2023-05-08T02:18:26;1.63;;;1.13;;
70297;SDS011;57702;44.420;20.298;2023-05-08T02:20:53;1.52;;;1.42;;
70297;SDS011;57702;44.420;20.298;2023-05-08T02:23:21;3.25;;;1.13;;
70297;SDS011;57702;44.420;20.298;2023-05-08T02:25:48;2.10;;;1.33;;
70297;SDS011;57702;44.420;20.298;2023-05-08T02:28:15;5.00;;;1.63;;
70297;SDS011;57702;44.420;20.298;2023-05-08T02:30:41;1.13;;;1.05;;
70297;SDS011;57702;44.420;20.298;2023-05-08T02:33:08;7.53;;;1.27;;
70297;SDS011;57702;44.420;20.298;2023-05-08T02:35:35;1.73;;;0.85;;
70297;SDS011;57702;44.420;20.298;2023-05-08T02:38:02;1.50;;;0.98;;
70297;SDS011;57702;44.420;20.298;2023-05-08T02:40:34;2.85;;;1.08;;
70297;SDS011;57702;44.420;20.298;2023-05-08T02:43:01;1.33;;;1.30;;
70297;SDS011;57702;44.420;20.298;2023-05-08T02:45:27;1.65;;;1.23;;
70297;SDS011;57702;44.420;20.298;2023-05-08T02:48:05;0.95;;;0.95;;
70297;SDS011;57702;44.420;20.298;2023-05-08T02:50:37;1.25;;;1.13;;
70297;SDS011;57702;44.420;20.298;2023-05-08T02:53:07;14.27;;;1.40;;
70297;SDS011;57702;44.420;20.298;2023-05-08T02:55:51;1.10;;;1.05;;
70297;SDS011;57702;44.420;20.298;2023-05-08T02:58:21;1.23;;;0.85;;
70297;SDS011;57702;44.420;20.298;2023-05-08T03:00:55;1.08;;;1.00;;
70297;SDS011;57702;44.420;20.298;2023-05-08T03:03:22;1.33;;;1.05;;
70297;SDS011;57702;44.420;20.298;2023-05-08T03:05:51;1.60;;;1.10;;
70297;SDS011;57702;44.420;20.298;2023-05-08T03:08:19;0.93;;;0.88;;
70297;SDS011;57702;44.420;20.298;2023-05-08T03:10:48;1.27;;;1.13;;
70297;SDS011;57702;44.420;20.298;2023-05-08T03:13:15;1.77;;;0.93;;
70297;SDS011;57702;44.420;20.298;2023-05-08T03:18:17;0.55;;;0.50;;
70297;SDS011;57702;44.420;20.298;2023-05-08T03:20:44;0.98;;;0.98;;
70297;SDS011;57702;44.420;20.298;2023-05-08T03:23:14;0.82;;;0.73;;
70297;SDS011;57702;44.420;20.298;2023-05-08T03:25:41;1.25;;;1.15;;
70297;SDS011;57702;44.420;20.298;2023-05-08T03:28:08;1.90;;;1.13;;
70297;SDS011;57702;44.420;20.298;2023-05-08T03:30:35;1.15;;;0.95;;
70297;SDS011;57702;44.420;20.298;2023-05-08T03:33:05;1.05;;;0.93;;
70297;SDS011;57702;44.420;20.298;2023-05-08T03:35:35;1.38;;;1.08;;
70297;SDS011;57702;44.420;20.298;2023-05-08T03:38:01;4.72;;;1.20;;
70297;SDS011;57702;44.420;20.298;2023-05-08T03:40:28;1.25;;;1.00;;
70297;SDS011;57702;44.420;20.298;2023-05-08T03:42:54;0.98;;;0.95;;
70297;SDS011;57702;44.420;20.298;2023-05-08T03:45:21;0.93;;;0.73;;
70297;SDS011;57702;44.420;20.298;2023-05-08T03:47:48;1.35;;;1.35;;
70297;SDS011;57702;44.420;20.298;2023-05-08T03:50:17;0.95;;;0.65;;
70297;SDS011;57702;44.420;20.298;2023-05-08T03:52:44;0.80;;;0.80;;
70297;SDS011;57702;44.420;20.298;2023-05-08T03:55:10;0.57;;;0.57;;
70297;SDS011;57702;44.420;20.298;2023-05-08T03:58:00;0.85;;;0.80;;
70297;SDS011;57702;44.420;20.298;2023-05-08T04:00:40;21.13;;;1.25;;
70297;SDS011;57702;44.420;20.298;2023-05-08T04:05:36;0.70;;;0.70;;
70297;SDS011;57702;44.420;20.298;2023-05-08T04:10:35;3.17;;;1.25;;
70297;SDS011;57702;44.420;20.298;2023-05-08T04:13:07;2.90;;;1.63;;
70297;SDS011;57702;44.420;20.298;2023-05-08T04:15:37;0.52;;;0.52;;
70297;SDS011;57702;44.420;20.298;2023-05-08T04:18:05;1.30;;;0.88;;
70297;SDS011;57702;44.420;20.298;2023-05-08T04:20:33;0.98;;;0.88;;
70297;SDS011;57702;44.420;20.298;2023-05-08T04:22:59;1.65;;;1.17;;
70297;SDS011;57702;44.420;20.298;2023-05-08T04:25:25;0.82;;;0.82;;
70297;SDS011;57702;44.420;20.298;2023-05-08T04:27:53;1.25;;;0.73;;
70297;SDS011;57702;44.420;20.298;2023-05-08T04:30:21;1.13;;;1.10;;
70297;SDS011;57702;44.420;20.298;2023-05-08T04:32:47;1.70;;;0.90;;
70297;SDS011;57702;44.420;20.298;2023-05-08T04:35:14;2.13;;;0.95;;
70297;SDS011;57702;44.420;20.298;2023-05-08T04:37:40;0.82;;;0.60;;
70297;SDS011;57702;44.420;20.298;2023-05-08T04:40:07;1.00;;;1.00;;
70297;SDS011;57702;44.420;20.298;2023-05-08T04:42:34;9.95;;;0.75;;
70297;SDS011;57702;44.420;20.298;2023-05-08T04:45:02;1.25;;;0.95;;
70297;SDS011;57702;44.420;20.298;2023-05-08T04:47:29;1.27;;;1.17;;
70297;SDS011;57702;44.420;20.298;2023-05-08T04:49:55;5.15;;;1.40;;
70297;SDS011;57702;44.420;20.298;2023-05-08T04:52:21;1.30;;;0.80;;
70297;SDS011;57702;44.420;20.298;2023-05-08T04:54:47;9.60;;;1.25;;
70297;SDS011;57702;44.420;20.298;2023-05-08T04:57:13;2.40;;;1.58;;
70297;SDS011;57702;44.420;20.298;2023-05-08T04:59:39;2.28;;;1.13;;
70297;SDS011;57702;44.420;20.298;2023-05-08T05:02:06;1.25;;;1.15;;
70297;SDS011;57702;44.420;20.298;2023-05-08T05:04:33;2.00;;;0.95;;
70297;SDS011;57702;44.420;20.298;2023-05-08T05:07:00;6.30;;;1.60;;
70297;SDS011;57702;44.420;20.298;2023-05-08T05:09:27;2.53;;;1.55;;
70297;SDS011;57702;44.420;20.298;2023-05-08T05:11:54;2.15;;;1.92;;
70297;SDS011;57702;44.420;20.298;2023-05-08T05:14:20;1.38;;;1.02;;
70297;SDS011;57702;44.420;20.298;2023-05-08T05:16:46;2.42;;;1.58;;
70297;SDS011;57702;44.420;20.298;2023-05-08T05:19:12;3.50;;;2.03;;
70297;SDS011;57702;44.420;20.298;2023-05-08T05:21:39;3.35;;;2.20;;
70297;SDS011;57702;44.420;20.298;2023-05-08T05:24:05;2.22;;;1.55;;
70297;SDS011;57702;44.420;20.298;2023-05-08T05:26:32;3.80;;;1.38;;
70297;SDS011;57702;44.420;20.298;2023-05-08T05:28:59;2.95;;;2.05;;
70297;SDS011;57702;44.420;20.298;2023-05-08T05:31:26;1.63;;;1.38;;
70297;SDS011;57702;44.420;20.298;2023-05-08T05:33:58;1.92;;;1.52;;
70297;SDS011;57702;44.420;20.298;2023-05-08T05:36:30;5.68;;;2.00;;
70297;SDS011;57702;44.420;20.298;2023-05-08T05:38:58;3.20;;;1.40;;
70297;SDS011;57702;44.420;20.298;2023-05-08T05:41:24;1.50;;;1.40;;
70297;SDS011;57702;44.420;20.298;2023-05-08T05:43:50;1.48;;;0.90;;
70297;SDS011;57702;44.420;20.298;2023-05-08T05:46:16;5.60;;;2.08;;
70297;SDS011;57702;44.420;20.298;2023-05-08T05:48:42;1.70;;;1.60;;
70297;SDS011;57702;44.420;20.298;2023-05-08T05:51:09;2.85;;;1.92;;
70297;SDS011;57702;44.420;20.298;2023-05-08T05:53:35;3.60;;;1.88;;
70297;SDS011;57702;44.420;20.298;2023-05-08T05:56:02;3.35;;;2.38;;
70297;SDS011;57702;44.420;20.298;2023-05-08T05:58:30;8.38;;;3.25;;
70297;SDS011;57702;44.420;20.298;2023-05-08T06:00:57;5.80;;;2.60;;
70297;SDS011;57702;44.420;20.298;2023-05-08T06:03:36;2.83;;;2.33;;
70297;SDS011;57702;44.420;20.298;2023-05-08T06:06:10;9.02;;;3.17;;
70297;SDS011;57702;44.420;20.298;2023-05-08T06:08:36;4.90;;;2.38;;
70297;SDS011;57702;44.420;20.298;2023-05-08T06:11:02;6.05;;;2.60;;
70297;SDS011;57702;44.420;20.298;2023-05-08T06:13:35;11.65;;;3.22;;
70297;SDS011;57702;44.420;20.298;2023-05-08T06:16:01;8.30;;;4.45;;
70297;SDS011;57702;44.420;20.298;2023-05-08T06:18:27;4.50;;;3.22;;
70297;SDS011;57702;44.420;20.298;2023-05-08T06:20:57;3.45;;;2.15;;
70297;SDS011;57702;44.420;20.298;2023-05-08T06:23:23;3.10;;;1.92;;
70297;SDS011;57702;44.420;20.298;2023-05-08T06:25:50;5.95;;;3.13;;
70297;SDS011;57702;44.420;20.298;2023-05-08T06:28:16;4.40;;;2.53;;
70297;SDS011;57702;44.420;20.298;2023-05-08T06:30:42;10.57;;;3.20;;
70297;SDS011;57702;44.420;20.298;2023-05-08T06:33:09;5.47;;;2.95;;
70297;SDS011;57702;44.420;20.298;2023-05-08T06:35:36;2.95;;;1.98;;
70297;SDS011;57702;44.420;20.298;2023-05-08T06:38:02;3.10;;;2.33;;
70297;SDS011;57702;44.420;20.298;2023-05-08T06:40:28;6.00;;;1.67;;
70297;SDS011;57702;44.420;20.298;2023-05-08T06:42:59;11.77;;;2.72;;
70297;SDS011;57702;44.420;20.298;2023-05-08T06:45:26;2.92;;;2.47;;
70297;SDS011;57702;44.420;20.298;2023-05-08T06:47:52;8.00;;;2.92;;
70297;SDS011;57702;44.420;20.298;2023-05-08T06:50:19;5.43;;;2.33;;
70297;SDS011;57702;44.420;20.298;2023-05-08T06:52:45;5.93;;;2.15;;
70297;SDS011;57702;44.420;20.298;2023-05-08T06:55:12;4.22;;;2.53;;
70297;SDS011;57702;44.420;20.298;2023-05-08T06:57:38;3.47;;;1.92;;
70297;SDS011;57702;44.420;20.298;2023-05-08T07:00:04;6.68;;;1.65;;
70297;SDS011;57702;44.420;20.298;2023-05-08T07:02:30;4.22;;;2.05;;
70297;SDS011;57702;44.420;20.298;2023-05-08T07:04:57;3.70;;;2.50;;
70297;SDS011;57702;44.420;20.298;2023-05-08T07:07:23;7.15;;;2.20;;
70297;SDS011;57702;44.420;20.298;2023-05-08T07:09:49;3.22;;;2.05;;
70297;SDS011;57702;44.420;20.298;2023-05-08T07:12:15;6.70;;;2.58;;
70297;SDS011;57702;44.420;20.298;2023-05-08T07:14:42;5.78;;;3.05;;
70297;SDS011;57702;44.420;20.298;2023-05-08T07:17:08;5.65;;;2.75;;
70297;SDS011;57702;44.420;20.298;2023-05-08T07:19:34;5.13;;;2.38;;
70297;SDS011;57702;44.420;20.298;2023-05-08T07:22:01;6.22;;;2.75;;
70297;SDS011;57702;44.420;20.298;2023-05-08T07:24:27;9.35;;;2.38;;
70297;SDS011;57702;44.420;20.298;2023-05-08T07:26:54;9.10;;;2.38;;
70297;SDS011;57702;44.420;20.298;2023-05-08T07:29:20;2.92;;;2.45;;
70297;SDS011;57702;44.420;20.298;2023-05-08T07:31:46;4.40;;;2.88;;
70297;SDS011;57702;44.420;20.298;2023-05-08T07:34:13;7.95;;;3.63;;
70297;SDS011;57702;44.420;20.298;2023-05-08T07:36:39;8.07;;;2.63;;
70297;SDS011;57702;44.420;20.298;2023-05-08T07:39:06;3.75;;;2.63;;
70297;SDS011;57702;44.420;20.298;2023-05-08T07:41:32;3.45;;;2.00;;
70297;SDS011;57702;44.420;20.298;2023-05-08T07:44:00;4.68;;;2.35;;
70297;SDS011;57702;44.420;20.298;2023-05-08T07:46:26;2.47;;;2.25;;
70297;SDS011;57702;44.420;20.298;2023-05-08T07:48:52;4.00;;;2.13;;
70297;SDS011;57702;44.420;20.298;2023-05-08T07:51:18;1.77;;;1.67;;
70297;SDS011;57702;44.420;20.298;2023-05-08T07:53:44;2.53;;;2.08;;
70297;SDS011;57702;44.420;20.298;2023-05-08T07:56:12;2.03;;;1.73;;
70297;SDS011;57702;44.420;20.298;2023-05-08T07:58:39;5.10;;;2.13;;
70297;SDS011;57702;44.420;20.298;2023-05-08T08:01:06;8.00;;;2.15;;
70297;SDS011;57702;44.420;20.298;2023-05-08T08:03:33;1.27;;;1.17;;
70297;SDS011;57702;44.420;20.298;2023-05-08T08:05:59;2.00;;;1.83;;
70297;SDS011;57702;44.420;20.298;2023-05-08T08:08:25;3.30;;;1.73;;
70297;SDS011;57702;44.420;20.298;2023-05-08T08:10:52;4.50;;;1.70;;
70297;SDS011;57702;44.420;20.298;2023-05-08T08:13:18;2.65;;;1.58;;
70297;SDS011;57702;44.420;20.298;2023-05-08T08:15:44;4.53;;;2.35;;
70297;SDS011;57702;44.420;20.298;2023-05-08T08:18:10;1.55;;;1.55;;
70297;SDS011;57702;44.420;20.298;2023-05-08T08:20:37;1.35;;;1.15;;
70297;SDS011;57702;44.420;20.298;2023-05-08T08:23:03;0.73;;;0.73;;
70297;SDS011;57702;44.420;20.298;2023-05-08T08:25:30;1.17;;;1.05;;
70297;SDS011;57702;44.420;20.298;2023-05-08T08:27:57;1.63;;;1.52;;
70297;SDS011;57702;44.420;20.298;2023-05-08T08:30:23;1.52;;;1.42;;
70297;SDS011;57702;44.420;20.298;2023-05-08T08:32:49;4.57;;;2.42;;
70297;SDS011;57702;44.420;20.298;2023-05-08T08:35:16;2.28;;;1.35;;
70297;SDS011;57702;44.420;20.298;2023-05-08T08:37:42;1.45;;;1.33;;
70297;SDS011;57702;44.420;20.298;2023-05-08T08:40:08;2.83;;;1.23;;
70297;SDS011;57702;44.420;20.298;2023-05-08T08:42:35;2.75;;;1.35;;
70297;SDS011;57702;44.420;20.298;2023-05-08T08:45:01;0.80;;;0.80;;
70297;SDS011;57702;44.420;20.298;2023-05-08T08:47:28;7.20;;;1.48;;
70297;SDS011;57702;44.420;20.298;2023-05-08T08:49:57;1.50;;;1.23;;
70297;SDS011;57702;44.420;20.298;2023-05-08T08:55:09;1.25;;;0.82;;
70297;SDS011;57702;44.420;20.298;2023-05-08T08:57:38;1.00;;;0.88;;
70297;SDS011;57702;44.420;20.298;2023-05-08T09:00:13;0.93;;;0.60;;
70297;SDS011;57702;44.420;20.298;2023-05-08T09:02:40;1.15;;;1.05;;
70297;SDS011;57702;44.420;20.298;2023-05-08T09:05:06;1.13;;;1.10;;
70297;SDS011;57702;44.420;20.298;2023-05-08T09:07:38;2.90;;;1.13;;
70297;SDS011;57702;44.420;20.298;2023-05-08T09:10:14;6.20;;;1.90;;
70297;SDS011;57702;44.420;20.298;2023-05-08T09:12:47;1.77;;;1.25;;
70297;SDS011;57702;44.420;20.298;2023-05-08T09:15:23;3.20;;;2.22;;
70297;SDS011;57702;44.420;20.298;2023-05-08T09:18:00;2.05;;;0.73;;
70297;SDS011;57702;44.420;20.298;2023-05-08T09:20:34;2.00;;;1.20;;
70297;SDS011;57702;44.420;20.298;2023-05-08T09:23:12;1.50;;;1.08;;
70297;SDS011;57702;44.420;20.298;2023-05-08T09:25:43;3.15;;;1.65;;
70297;SDS011;57702;44.420;20.298;2023-05-08T09:28:16;2.72;;;2.03;;
70297;SDS011;57702;44.420;20.298;2023-05-08T09:30:55;1.73;;;1.48;;
70297;SDS011;57702;44.420;20.298;2023-05-08T09:33:26;0.85;;;0.85;;
70297;SDS011;57702;44.420;20.298;2023-05-08T09:35:52;2.90;;;1.85;;
70297;SDS011;57702;44.420;20.298;2023-05-08T09:38:31;5.35;;;1.88;;
70297;SDS011;57702;44.420;20.298;2023-05-08T09:41:11;3.13;;;1.77;;
70297;SDS011;57702;44.420;20.298;2023-05-08T09:43:39;1.67;;;1.48;;
70297;SDS011;57702;44.420;20.298;2023-05-08T09:46:19;6.97;;;1.65;;
70297;SDS011;57702;44.420;20.298;2023-05-08T09:51:14;1.63;;;1.20;;
70297;SDS011;57702;44.420;20.298;2023-05-08T09:53:41;8.98;;;2.15;;
70297;SDS011;57702;44.420;20.298;2023-05-08T09:56:07;2.97;;;1.67;;
70297;SDS011;57702;44.420;20.298;2023-05-08T09:58:40;1.63;;;1.52;;
70297;SDS011;57702;44.420;20.298;2023-05-08T10:01:07;3.13;;;1.73;;
70297;SDS011;57702;44.420;20.298;2023-05-08T10:03:46;3.03;;;1.52;;
70297;SDS011;57702;44.420;20.298;2023-05-08T10:06:13;0.90;;;0.90;;
70297;SDS011;57702;44.420;20.298;2023-05-08T10:08:39;2.95;;;1.80;;
70297;SDS011;57702;44.420;20.298;2023-05-08T10:11:12;15.32;;;2.13;;
70297;SDS011;57702;44.420;20.298;2023-05-08T10:13:48;5.18;;;1.60;;
70297;SDS011;57702;44.420;20.298;2023-05-08T10:16:30;3.25;;;0.95;;
70297;SDS011;57702;44.420;20.298;2023-05-08T10:19:12;1.98;;;1.52;;
70297;SDS011;57702;44.420;20.298;2023-05-08T10:21:49;3.42;;;1.00;;
70297;SDS011;57702;44.420;20.298;2023-05-08T10:30:07;2.55;;;1.88;;
70297;SDS011;57702;44.420;20.298;2023-05-08T10:32:41;3.20;;;2.47;;
70297;SDS011;57702;44.420;20.298;2023-05-08T10:35:27;4.00;;;2.03;;
70297;SDS011;57702;44.420;20.298;2023-05-08T10:38:08;3.72;;;1.95;;
70297;SDS011;57702;44.420;20.298;2023-05-08T10:40:54;2.53;;;2.10;;
70297;SDS011;57702;44.420;20.298;2023-05-08T10:43:32;5.38;;;3.15;;
70297;SDS011;57702;44.420;20.298;2023-05-08T10:46:01;16.40;;;2.80;;
70297;SDS011;57702;44.420;20.298;2023-05-08T10:53:43;4.40;;;2.85;;
70297;SDS011;57702;44.420;20.298;2023-05-08T10:56:11;5.97;;;2.38;;
70297;SDS011;57702;44.420;20.298;2023-05-08T10:58:37;4.15;;;3.03;;
70297;SDS011;57702;44.420;20.298;2023-05-08T11:03:40;8.02;;;3.00;;
70297;SDS011;57702;44.420;20.298;2023-05-08T11:09:53;6.85;;;2.55;;
70297;SDS011;57702;44.420;20.298;2023-05-08T11:14:56;5.32;;;3.38;;
70297;SDS011;57702;44.420;20.298;2023-05-08T11:17:25;9.15;;;2.55;;
70297;SDS011;57702;44.420;20.298;2023-05-08T11:19:54;12.25;;;4.40;;
70297;SDS011;57702;44.420;20.298;2023-05-08T11:22:24;11.73;;;3.75;;
70297;SDS011;57702;44.420;20.298;2023-05-08T11:25:10;10.43;;;3.50;;
70297;SDS011;57702;44.420;20.298;2023-05-08T11:28:08;6.45;;;3.53;;
70297;SDS011;57702;44.420;20.298;2023-05-08T11:35:45;4.68;;;3.13;;
70297;SDS011;57702;44.420;20.298;2023-05-08T11:41:00;8.60;;;3.65;;
70297;SDS011;57702;44.420;20.298;2023-05-08T11:43:47;4.50;;;3.53;;
70297;SDS011;57702;44.420;20.298;2023-05-08T11:46:34;3.97;;;3.28;;
70297;SDS011;57702;44.420;20.298;2023-05-08T11:49:02;11.73;;;3.75;;
70297;SDS011;57702;44.420;20.298;2023-05-08T11:51:32;7.28;;;3.08;;
70297;SDS011;57702;44.420;20.298;2023-05-08T11:53:59;5.28;;;2.58;;
70297;SDS011;57702;44.420;20.298;2023-05-08T11:56:25;9.70;;;2.47;;
70297;SDS011;57702;44.420;20.298;2023-05-08T11:59:02;3.70;;;3.42;;
70297;SDS011;57702;44.420;20.298;2023-05-08T12:01:29;4.13;;;3.35;;
70297;SDS011;57702;44.420;20.298;2023-05-08T12:03:59;7.40;;;3.38;;
70297;SDS011;57702;44.420;20.298;2023-05-08T12:06:26;3.65;;;2.63;;
70297;SDS011;57702;44.420;20.298;2023-05-08T12:08:52;9.68;;;3.25;;
70297;SDS011;57702;44.420;20.298;2023-05-08T12:11:22;4.15;;;3.30;;
70297;SDS011;57702;44.420;20.298;2023-05-08T12:13:49;4.40;;;2.85;;
70297;SDS011;57702;44.420;20.298;2023-05-08T12:16:15;8.55;;;3.45;;
70297;SDS011;57702;44.420;20.298;2023-05-08T12:18:42;2.85;;;2.20;;
70297;SDS011;57702;44.420;20.298;2023-05-08T12:21:08;8.95;;;3.25;;
70297;SDS011;57702;44.420;20.298;2023-05-08T12:23:35;15.68;;;3.03;;
70297;SDS011;57702;44.420;20.298;2023-05-08T12:26:04;3.75;;;2.03;;
70297;SDS011;57702;44.420;20.298;2023-05-08T12:28:30;3.15;;;2.55;;
70297;SDS011;57702;44.420;20.298;2023-05-08T12:30:57;4.30;;;2.15;;
70297;SDS011;57702;44.420;20.298;2023-05-08T12:33:23;6.05;;;2.58;;
70297;SDS011;57702;44.420;20.298;2023-05-08T12:35:49;8.13;;;3.40;;
70297;SDS011;57702;44.420;20.298;2023-05-08T12:38:16;4.78;;;2.47;;
70297;SDS011;57702;44.420;20.298;2023-05-08T12:40:45;8.07;;;3.53;;
70297;SDS011;57702;44.420;20.298;2023-05-08T12:43:20;7.25;;;2.60;;
70297;SDS011;57702;44.420;20.298;2023-05-08T12:45:49;3.90;;;2.38;;
70297;SDS011;57702;44.420;20.298;2023-05-08T12:48:18;11.65;;;2.85;;
70297;SDS011;57702;44.420;20.298;2023-05-08T12:50:45;14.00;;;3.47;;
70297;SDS011;57702;44.420;20.298;2023-05-08T12:53:15;8.43;;;3.70;;
70297;SDS011;57702;44.420;20.298;2023-05-08T12:55:55;6.90;;;3.17;;
70297;SDS011;57702;44.420;20.298;2023-05-08T12:58:29;5.90;;;3.30;;
70297;SDS011;57702;44.420;20.298;2023-05-08T13:01:06;6.65;;;3.20;;
70297;SDS011;57702;44.420;20.298;2023-05-08T13:03:34;6.53;;;2.45;;
70297;SDS011;57702;44.420;20.298;2023-05-08T13:06:01;8.15;;;4.03;;
70297;SDS011;57702;44.420;20.298;2023-05-08T13:08:34;4.10;;;3.05;;
70297;SDS011;57702;44.420;20.298;2023-05-08T13:11:01;14.77;;;4.32;;
70297;SDS011;57702;44.420;20.298;2023-05-08T13:13:34;5.35;;;2.83;;
70297;SDS011;57702;44.420;20.298;2023-05-08T13:16:04;7.53;;;3.97;;
70297;SDS011;57702;44.420;20.298;2023-05-08T13:18:31;5.90;;;3.00;;
70297;SDS011;57702;44.420;20.298;2023-05-08T13:20:58;5.13;;;3.30;;
70297;SDS011;57702;44.420;20.298;2023-05-08T13:23:26;14.88;;;3.25;;
70297;SDS011;57702;44.420;20.298;2023-05-08T13:25:52;7.18;;;2.80;;
70297;SDS011;57702;44.420;20.298;2023-05-08T13:28:18;7.43;;;2.40;;
70297;SDS011;57702;44.420;20.298;2023-05-08T13:30:44;9.23;;;3.25;;
70297;SDS011;57702;44.420;20.298;2023-05-08T13:33:10;6.03;;;3.60;;
70297;SDS011;57702;44.420;20.298;2023-05-08T13:35:37;5.90;;;3.63;;
70297;SDS011;57702;44.420;20.298;2023-05-08T13:38:03;9.40;;;4.50;;
70297;SDS011;57702;44.420;20.298;2023-05-08T13:40:30;5.78;;;4.07;;
70297;SDS011;57702;44.420;20.298;2023-05-08T13:42:56;5.85;;;3.65;;
70297;SDS011;57702;44.420;20.298;2023-05-08T13:45:22;6.70;;;3.90;;
70297;SDS011;57702;44.420;20.298;2023-05-08T13:47:49;7.07;;;3.17;;
70297;SDS011;57702;44.420;20.298;2023-05-08T13:50:16;18.67;;;3.90;;
70297;SDS011;57702;44.420;20.298;2023-05-08T13:52:43;6.78;;;3.88;;
70297;SDS011;57702;44.420;20.298;2023-05-08T13:55:10;3.78;;;2.95;;
70297;SDS011;57702;44.420;20.298;2023-05-08T13:57:37;3.88;;;2.25;;
70297;SDS011;57702;44.420;20.298;2023-05-08T14:00:04;5.00;;;3.50;;
70297;SDS011;57702;44.420;20.298;2023-05-08T14:02:30;12.98;;;5.00;;
70297;SDS011;57702;44.420;20.298;2023-05-08T14:04:56;5.43;;;2.38;;
70297;SDS011;57702;44.420;20.298;2023-05-08T14:07:23;5.88;;;3.05;;
70297;SDS011;57702;44.420;20.298;2023-05-08T14:09:50;7.00;;;3.17;;
70297;SDS011;57702;44.420;20.298;2023-05-08T14:12:16;5.32;;;2.83;;
70297;SDS011;57702;44.420;20.298;2023-05-08T14:14:43;3.92;;;2.92;;
70297;SDS011;57702;44.420;20.298;2023-05-08T14:17:09;15.70;;;3.25;;
70297;SDS011;57702;44.420;20.298;2023-05-08T14:19:35;7.57;;;3.72;;
70297;SDS011;57702;44.420;20.298;2023-05-08T14:22:01;5.82;;;3.03;;
70297;SDS011;57702;44.420;20.298;2023-05-08T14:24:28;4.55;;;3.45;;
70297;SDS011;57702;44.420;20.298;2023-05-08T14:26:55;11.25;;;2.70;;
70297;SDS011;57702;44.420;20.298;2023-05-08T14:29:21;5.65;;;3.15;;
70297;SDS011;57702;44.420;20.298;2023-05-08T14:31:47;10.18;;;3.28;;
70297;SDS011;57702;44.420;20.298;2023-05-08T14:34:13;6.65;;;2.63;;
70297;SDS011;57702;44.420;20.298;2023-05-08T14:36:39;4.35;;;2.50;;
70297;SDS011;57702;44.420;20.298;2023-05-08T14:39:06;3.33;;;2.97;;
70297;SDS011;57702;44.420;20.298;2023-05-08T14:41:32;5.10;;;3.20;;
70297;SDS011;57702;44.420;20.298;2023-05-08T14:43:59;17.75;;;4.13;;
70297;SDS011;57702;44.420;20.298;2023-05-08T14:46:25;6.65;;;3.47;;
70297;SDS011;57702;44.420;20.298;2023-05-08T14:48:51;3.35;;;3.00;;
70297;SDS011;57702;44.420;20.298;2023-05-08T14:51:17;8.48;;;3.22;;
70297;SDS011;57702;44.420;20.298;2023-05-08T14:53:44;7.38;;;3.67;;
70297;SDS011;57702;44.420;20.298;2023-05-08T14:56:10;11.13;;;3.13;;
70297;SDS011;57702;44.420;20.298;2023-05-08T14:58:37;6.65;;;3.25;;
70297;SDS011;57702;44.420;20.298;2023-05-08T15:01:04;7.03;;;3.83;;
70297;SDS011;57702;44.420;20.298;2023-05-08T15:03:30;7.75;;;3.25;;
70297;SDS011;57702;44.420;20.298;2023-05-08T15:05:56;5.03;;;3.60;;
70297;SDS011;57702;44.420;20.298;2023-05-08T15:08:23;5.70;;;3.55;;
70297;SDS011;57702;44.420;20.298;2023-05-08T15:10:49;4.70;;;3.08;;
70297;SDS011;57702;44.420;20.298;2023-05-08T15:13:16;6.13;;;3.15;;
70297;SDS011;57702;44.420;20.298;2023-05-08T15:15:42;5.50;;;2.75;;
70297;SDS011;57702;44.420;20.298;2023-05-08T15:18:08;4.13;;;2.40;;
70297;SDS011;57702;44.420;20.298;2023-05-08T15:20:36;5.30;;;3.25;;
70297;SDS011;57702;44.420;20.298;2023-05-08T15:23:02;5.93;;;2.55;;
70297;SDS011;57702;44.420;20.298;2023-05-08T15:25:28;7.97;;;4.05;;
70297;SDS011;57702;44.420;20.298;2023-05-08T15:27:55;5.88;;;3.25;;
70297;SDS011;57702;44.420;20.298;2023-05-08T15:30:21;3.25;;;2.63;;
70297;SDS011;57702;44.420;20.298;2023-05-08T15:32:47;4.65;;;3.90;;
70297;SDS011;57702;44.420;20.298;2023-05-08T15:35:13;8.43;;;4.35;;
70297;SDS011;57702;44.420;20.298;2023-05-08T15:37:40;7.97;;;3.63;;
70297;SDS011;57702;44.420;20.298;2023-05-08T15:40:06;11.63;;;3.17;;